Time;durP1;ratioP1;P1;durP2;ratioP2;P2;SDS_P1;SDS_P2;PMS_P1;PMS_P2;Temp;Humidity;BMP_temperature;BMP_pressure;BME280_temperature;BME280_humidity;BME280_pressure;Samples;Min_cycle;Max_cycle;Signal;HPM_P1;HPM_P2
2024/01/23 00:04:05;;;;;;;5.73;3.27;;;;;;;10.47;46.88;100570.03;10317678;28;20234;-41
2024/01/23 00:09:07;;;;;;;5.70;2.37;;;;;;;10.64;46.04;100612.91;10315921;28;20243;-43
2024/01/23 00:14:09;;;;;;;5.97;3.00;;;;;;;10.87;46.29;100532.81;10317034;28;20432;-42
2024/01/23 00:19:10;;;;;;;6.43;2.70;;;;;;;10.84;46.13;100592.03;10313968;28;20260;-43
2024/01/23 00:24:12;;;;;;;7.47;3.03;;;;;;;10.84;45.82;100578.66;10301558;28;20229;-42
2024/01/23 00:29:15;;;;;;;6.00;3.10;;;;;;;9.37;48.54;100652.72;10316123;28;20557;-45
2024/01/23 00:34:17;;;;;;;7.63;3.00;;;;;;;10.09;47.46;100572.31;10315172;28;20352;-42
2024/01/23 00:39:19;;;;;;;4.27;2.60;;;;;;;10.53;46.57;100611.38;10315037;28;20748;-43
2024/01/23 00:44:21;;;;;;;6.03;2.70;;;;;;;10.67;46.11;100650.06;10316609;28;20242;-42
2024/01/23 00:49:22;;;;;;;5.10;2.80;;;;;;;10.51;46.43;100618.72;10315342;28;20222;-42
2024/01/23 00:54:24;;;;;;;5.20;2.67;;;;;;;9.25;48.26;100678.00;10314619;28;20320;-43
2024/01/23 00:59:26;;;;;;;8.03;2.80;;;;;;;10.46;47.33;100482.75;10312683;28;20233;-41
2024/01/23 01:04:28;;;;;;;5.67;2.87;;;;;;;9.75;47.51;100647.13;10312904;28;20374;-42
2024/01/23 01:09:30;;;;;;;9.13;2.70;;;;;;;9.34;48.98;100574.72;10313861;28;20238;-42
2024/01/23 01:14:33;;;;;;;6.60;3.00;;;;;;;9.42;48.95;100557.94;10313576;28;20621;-42
2024/01/23 01:19:35;;;;;;;4.43;2.73;;;;;;;8.22;50.25;100712.88;10314267;28;20472;-43
2024/01/23 01:24:37;;;;;;;8.37;3.27;;;;;;;10.11;48.24;100457.16;10315251;28;20661;-42
2024/01/23 01:29:39;;;;;;;8.20;3.13;;;;;;;9.48;48.10;100621.41;10318504;28;20248;-43
2024/01/23 01:34:41;;;;;;;6.33;3.47;;;;;;;8.81;48.87;100675.22;10314674;28;20244;-41
2024/01/23 01:39:43;;;;;;;8.97;3.70;;;;;;;8.62;49.08;100658.34;10312387;28;20721;-41
2024/01/23 01:44:45;;;;;;;10.60;4.10;;;;;;;8.76;48.39;100697.03;10310911;28;20640;-42
2024/01/23 01:49:47;;;;;;;10.23;3.70;;;;;;;9.18;47.75;100636.88;10311849;28;21079;-41
2024/01/23 01:54:49;;;;;;;10.33;3.83;;;;;;;9.54;47.28;100557.47;10312260;28;20249;-41
2024/01/23 01:59:51;;;;;;;7.63;4.10;;;;;;;9.68;47.32;100587.28;10312034;28;20272;-43
2024/01/23 02:04:53;;;;;;;8.20;3.00;;;;;;;9.93;46.58;100580.25;10307886;28;20240;-44
2024/01/23 02:09:55;;;;;;;9.33;3.20;;;;;;;10.03;46.93;100554.22;10309667;28;20230;-42
2024/01/23 02:14:57;;;;;;;7.57;3.20;;;;;;;9.09;47.97;100630.63;10311301;28;20484;-42
2024/01/23 02:19:58;;;;;;;8.60;3.63;;;;;;;9.25;47.62;100640.63;10278366;28;20235;-41
2024/01/23 02:25:00;;;;;;;10.50;4.13;;;;;;;8.54;49.10;100622.72;10308412;28;20243;-42
2024/01/23 02:30:02;;;;;;;11.17;4.13;;;;;;;9.76;46.73;100592.69;10309791;28;20247;-42
2024/01/23 02:35:05;;;;;;;7.20;3.37;;;;;;;9.80;47.68;100550.44;10304313;28;20247;-42
2024/01/23 02:40:07;;;;;;;7.63;3.97;;;;;;;9.64;47.48;100591.28;10310075;28;20237;-41
2024/01/23 02:45:09;;;;;;;8.80;3.47;;;;;;;10.20;46.55;100573.84;10307608;28;20249;-42
2024/01/23 02:50:12;;;;;;;7.80;3.13;;;;;;;10.23;46.43;100562.81;10309011;28;20244;-42
2024/01/23 02:55:14;;;;;;;11.17;3.80;;;;;;;9.43;46.95;100712.69;10312512;28;20289;-42
2024/01/23 03:00:16;;;;;;;13.53;4.40;;;;;;;8.78;48.35;100646.16;10295955;28;20575;-42
2024/01/23 03:05:18;;;;;;;10.07;4.27;;;;;;;9.61;46.93;100664.56;10308673;28;20230;-40
2024/01/23 03:10:19;;;;;;;8.87;3.67;;;;;;;9.58;47.45;100641.69;10308115;28;20731;-41
2024/01/23 03:15:21;;;;;;;7.73;3.70;;;;;;;10.23;46.64;100527.22;10309033;28;20533;-42
2024/01/23 03:20:28;;;;;;;7.73;3.43;;;;;;;9.12;48.06;100646.34;10309177;28;20271;-41
2024/01/23 03:25:30;;;;;;;9.77;3.53;;;;;;;10.07;47.10;100558.25;10311258;28;20231;-42
2024/01/23 03:30:32;;;;;;;7.77;3.40;;;;;;;9.70;46.99;100652.09;10309443;28;20252;-42
2024/01/23 03:35:34;;;;;;;9.37;3.80;;;;;;;10.05;46.37;100651.16;10306188;28;20454;-42
2024/01/23 03:40:36;;;;;;;11.73;3.87;;;;;;;9.50;47.45;100656.81;10307969;28;20226;-42
2024/01/23 03:45:37;;;;;;;8.17;3.60;;;;;;;10.08;46.42;100682.09;10310574;28;20710;-42
2024/01/23 03:50:39;;;;;;;9.13;3.90;;;;;;;9.50;47.14;100745.84;10304556;28;20821;-42
2024/01/23 03:55:41;;;;;;;13.90;5.30;;;;;;;9.98;46.72;100666.16;10304645;28;20698;-42
2024/01/23 04:00:43;;;;;;;10.43;3.57;;;;;;;9.67;47.15;100720.09;10304431;28;20367;-42
2024/01/23 04:05:45;;;;;;;8.23;3.77;;;;;;;9.28;47.84;100698.22;10304432;28;20239;-42
2024/01/23 04:10:46;;;;;;;8.27;3.80;;;;;;;9.46;47.41;100720.41;10293749;28;20234;-43
2024/01/23 04:15:48;;;;;;;12.93;4.10;;;;;;;9.91;47.35;100639.22;10315398;28;20231;-42
2024/01/23 04:20:50;;;;;;;8.60;3.33;;;;;;;9.69;47.42;100677.16;10316114;28;20311;-41
2024/01/23 04:25:52;;;;;;;8.37;4.17;;;;;;;9.05;47.82;100815.31;10309088;28;20760;-42
2024/01/23 04:30:53;;;;;;;8.63;4.03;;;;;;;9.76;46.75;100721.81;10313131;28;20258;-42
2024/01/23 04:35:55;;;;;;;7.30;3.87;;;;;;;8.45;48.16;100907.22;10308541;28;20562;-41
2024/01/23 04:40:57;;;;;;;9.00;3.63;;;;;;;8.98;47.88;100817.75;10309396;28;20289;-43
2024/01/23 04:45:59;;;;;;;8.43;4.00;;;;;;;9.43;47.20;100790.16;10310091;28;20381;-43
2024/01/23 04:51:01;;;;;;;9.53;3.43;;;;;;;8.51;47.87;100935.16;10305275;28;20313;-38
2024/01/23 04:56:03;;;;;;;13.17;4.20;;;;;;;9.05;47.08;100834.00;10312689;28;20237;-42
2024/01/23 05:01:05;;;;;;;12.53;3.93;;;;;;;9.64;47.40;100650.09;10315446;28;20262;-42
2024/01/23 05:06:07;;;;;;;9.63;3.47;;;;;;;8.80;48.39;100709.06;10312772;28;20235;-41
2024/01/23 05:11:09;;;;;;;8.73;3.40;;;;;;;9.43;47.51;100711.88;10306852;28;20241;-41
2024/01/23 05:16:11;;;;;;;4.60;2.77;;;;;;;9.64;46.45;100778.34;10314229;28;20234;-41
2024/01/23 05:21:14;;;;;;;6.73;3.07;;;;;;;9.30;47.20;100827.09;10312318;28;20680;-40
2024/01/23 05:26:16;;;;;;;6.30;3.27;;;;;;;9.33;46.86;100832.13;10308618;28;20241;-42
2024/01/23 05:31:18;;;;;;;4.90;2.97;;;;;;;9.03;47.64;100821.66;10316913;28;20246;-41
2024/01/23 05:36:20;;;;;;;4.23;2.50;;;;;;;8.70;48.25;100888.91;10311934;28;20240;-39
2024/01/23 05:41:21;;;;;;;5.87;3.07;;;;;;;8.20;49.79;100850.84;10310488;28;20262;-43
2024/01/23 05:46:23;;;;;;;4.00;2.73;;;;;;;8.24;49.99;100822.06;10313133;28;20320;-42
2024/01/23 05:51:25;;;;;;;4.73;3.00;;;;;;;7.95;49.96;100907.38;10311815;28;20719;-40
2024/01/23 05:56:26;;;;;;;4.30;2.70;;;;;;;7.52;50.68;100930.72;10311790;28;20241;-40
2024/01/23 06:01:31;;;;;;;5.80;2.90;;;;;;;8.45;49.40;100801.38;10311769;28;20313;-39
2024/01/23 06:06:32;;;;;;;5.57;2.50;;;;;;;8.47;48.66;100900.75;10308481;28;20353;-40
2024/01/23 06:11:34;;;;;;;7.60;2.83;;;;;;;7.90;49.18;100955.78;10305857;28;20239;-44
2024/01/23 06:16:39;;;;;;;3.73;3.00;;;;;;;8.71;48.56;100834.53;10311338;28;20241;-42
2024/01/23 06:21:41;;;;;;;10.37;3.27;;;;;;;7.20;50.38;100982.31;10309820;28;20621;-41
2024/01/23 06:26:42;;;;;;;6.90;3.10;;;;;;;8.10;49.04;100922.84;10308345;28;20649;-39
2024/01/23 06:31:44;;;;;;;9.30;2.93;;;;;;;8.69;48.43;100850.72;10306851;28;20320;-40
2024/01/23 06:36:48;;;;;;;7.33;3.30;;;;;;;8.04;48.79;101034.50;10309169;28;20239;-42
2024/01/23 06:41:50;;;;;;;7.97;3.50;;;;;;;8.57;48.38;101012.81;10307560;28;20292;-39
2024/01/23 06:46:51;;;;;;;7.10;3.23;;;;;;;7.96;50.17;100983.69;10289783;28;20325;-42
2024/01/23 06:51:53;;;;;;;9.23;3.43;;;;;;;8.53;47.83;101095.94;10310000;28;20300;-42
2024/01/23 06:56:55;;;;;;;7.53;3.10;;;;;;;8.97;48.33;100954.88;10307498;28;20237;-41
2024/01/23 07:01:56;;;;;;;5.73;3.77;;;;;;;9.96;46.20;101015.78;10308847;28;20790;-42
2024/01/23 07:06:58;;;;;;;6.63;3.70;;;;;;;8.73;48.33;101076.28;10307492;28;20363;-42
2024/01/23 07:12:00;;;;;;;9.23;4.37;;;;;;;8.99;48.56;100951.09;10308495;28;20226;-41
2024/01/23 07:17:02;;;;;;;17.17;4.07;;;;;;;8.00;50.37;101062.41;10308431;28;20232;-41
2024/01/23 07:22:03;;;;;;;6.30;3.33;;;;;;;8.79;49.07;100968.09;10309126;28;20260;-40
2024/01/23 07:27:05;;;;;;;8.00;3.93;;;;;;;9.01;48.81;100961.59;10305840;28;20839;-40
2024/01/23 07:32:07;;;;;;;7.50;3.33;;;;;;;7.62;50.37;101135.88;10290887;28;20245;-43
2024/01/23 07:37:09;;;;;;;7.70;4.10;;;;;;;7.60;50.68;101112.03;10306421;28;20676;-42
2024/01/23 07:42:11;;;;;;;10.63;4.30;;;;;;;8.22;50.01;101066.69;10310185;28;20276;-42
2024/01/23 07:47:13;;;;;;;9.87;3.50;;;;;;;8.36;50.07;101036.94;10294499;28;20718;-43
2024/01/23 07:52:19;;;;;;;7.27;4.30;;;;;;;8.08;50.38;101110.56;10301603;28;20218;-39
2024/01/23 07:57:21;;;;;;;7.27;3.30;;;;;;;9.40;48.47;100977.50;10310606;28;20214;-41
2024/01/23 08:02:24;;;;;;;9.23;3.27;;;;;;;9.35;48.13;101060.75;10316865;28;20227;-38
2024/01/23 08:07:26;;;;;;;10.00;4.17;;;;;;;8.48;48.83;101177.19;10314487;28;20806;-40
2024/01/23 08:12:27;;;;;;;14.77;4.90;;;;;;;9.23;48.46;101011.16;10315428;28;20293;-40
2024/01/23 08:17:29;;;;;;;8.13;3.53;;;;;;;8.76;47.73;101244.13;10313849;28;20242;-36
2024/01/23 08:22:31;;;;;;;10.60;4.50;;;;;;;9.64;47.28;101101.72;10316223;28;20237;-37
2024/01/23 08:27:32;;;;;;;7.73;3.70;;;;;;;9.77;47.44;101086.22;10314021;28;20251;-37
2024/01/23 08:32:34;;;;;;;12.97;5.10;;;;;;;9.24;48.81;101121.50;10314453;28;20237;-38
2024/01/23 08:37:36;;;;;;;8.40;3.57;;;;;;;8.94;48.81;101208.78;10312860;28;20219;-42
2024/01/23 08:42:38;;;;;;;9.50;4.47;;;;;;;9.84;48.45;101044.56;10313481;28;20735;-42
2024/01/23 08:47:40;;;;;;;8.37;3.30;;;;;;;9.26;48.77;101184.47;10309559;28;20705;-43
2024/01/23 08:52:43;;;;;;;8.83;4.27;;;;;;;9.17;49.26;101164.81;10311812;28;20265;-40
2024/01/23 08:57:45;;;;;;;8.87;3.60;;;;;;;8.93;50.12;101183.09;10311658;28;20239;-38
2024/01/23 09:02:46;;;;;;;10.73;4.13;;;;;;;10.18;47.94;101132.19;10311145;28;20341;-42
2024/01/23 09:07:48;;;;;;;5.93;3.50;;;;;;;9.80;47.92;101218.72;10310904;28;20322;-39
2024/01/23 09:12:50;;;;;;;18.30;7.73;;;;;;;9.42;48.72;101266.75;10309681;28;20623;-43
2024/01/23 09:17:52;;;;;;;11.97;5.33;;;;;;;10.27;47.80;101205.38;10310523;28;20311;-43
2024/01/23 09:22:54;;;;;;;12.73;5.13;;;;;;;10.54;47.95;101179.59;10311823;28;20288;-42
2024/01/23 09:27:56;;;;;;;14.97;4.77;;;;;;;10.14;48.95;101160.22;10315340;28;20234;-39
2024/01/23 09:33:00;;;;;;;11.10;4.60;;;;;;;9.47;49.47;101267.16;10312742;28;20249;-42
2024/01/23 09:38:03;;;;;;;7.63;4.50;;;;;;;9.99;48.23;101264.19;10311052;28;21021;-42
2024/01/23 09:43:08;;;;;;;11.33;3.90;;;;;;;10.24;48.52;101211.88;10312749;28;20305;-39
2024/01/23 09:48:10;;;;;;;18.20;4.77;;;;;;;9.66;49.64;101281.50;10309861;28;20313;-42
2024/01/23 09:53:13;;;;;;;12.80;4.23;;;;;;;11.27;47.19;101115.16;10310199;28;20530;-39
2024/01/23 09:58:14;;;;;;;9.33;3.80;;;;;;;10.83;48.11;101176.75;10289247;28;20226;-40
2024/01/23 10:03:16;;;;;;;7.80;4.00;;;;;;;11.21;46.57;101180.94;10310294;28;20284;-42
2024/01/23 10:08:18;;;;;;;16.73;4.20;;;;;;;11.85;46.31;101214.81;10307516;28;20230;-43
2024/01/23 10:13:20;;;;;;;17.43;4.53;;;;;;;11.77;45.65;101309.44;10311462;28;20720;-41
2024/01/23 10:18:22;;;;;;;13.77;4.27;;;;;;;11.33;46.70;101271.84;10309204;28;20252;-43
2024/01/23 10:23:32;;;;;;;14.50;4.37;;;;;;;10.03;46.73;101419.84;10306111;28;20317;-40
2024/01/23 10:28:35;;;;;;;9.30;3.53;;;;;;;10.99;46.14;101243.03;10309202;28;20268;-39
2024/01/23 10:33:37;;;;;;;14.40;4.23;;;;;;;11.96;44.23;101239.53;10309782;28;20614;-42
2024/01/23 10:38:40;;;;;;;12.53;3.30;;;;;;;10.58;45.71;101207.72;10304389;28;20213;-37
2024/01/23 10:43:45;;;;;;;9.67;3.77;;;;;;;11.31;44.33;101263.94;10287668;28;20233;-42
2024/01/23 10:48:47;;;;;;;11.33;3.70;;;;;;;10.54;45.22;101209.03;10307875;28;20238;-42
2024/01/23 10:53:57;;;;;;;11.20;3.73;;;;;;;9.33;45.78;101334.34;10310530;28;20276;-43
2024/01/23 10:59:01;;;;;;;10.13;3.60;;;;;;;10.97;43.98;101369.06;10306849;28;20233;-41
2024/01/23 11:06:27;;;;;;;9.43;4.67;;;;;;;8.11;50.28;101097.78;10402758;28;20792;-65
2024/01/23 11:11:57;;;;;;;13.47;3.97;;;;;;;8.99;49.74;101107.75;10385003;28;20626;-68
2024/01/23 11:17:09;;;;;;;11.37;4.17;;;;;;;9.55;49.02;101171.09;10376723;28;20341;-69
2024/01/23 11:22:11;;;;;;;7.67;3.33;;;;;;;8.97;49.30;101173.81;10340067;28;20233;-68
2024/01/23 11:27:20;;;;;;;7.47;3.87;;;;;;;8.80;49.17;101208.16;10382194;28;20213;-67
2024/01/23 11:32:24;;;;;;;15.20;4.47;;;;;;;9.24;49.03;101148.22;10385666;28;20708;-68
2024/01/23 11:37:49;;;;;;;9.13;4.20;;;;;;;10.00;48.09;101099.22;10379032;28;20213;-68
2024/01/23 11:42:54;;;;;;;9.23;3.60;;;;;;;9.67;47.05;101339.28;10382212;28;20268;-68
2024/01/23 11:47:57;;;;;;;10.53;4.23;;;;;;;9.82;47.39;101200.69;10381780;28;20298;-68
2024/01/23 11:53:01;;;;;;;12.13;3.67;;;;;;;8.75;48.69;101212.25;10381094;28;20244;-68
2024/01/23 11:58:03;;;;;;;10.70;3.23;;;;;;;7.88;48.79;101371.72;10382451;28;20712;-68
2024/01/23 12:03:20;;;;;;;11.17;3.57;;;;;;;8.14;49.45;101277.16;10379169;28;20357;-68
2024/01/23 12:08:23;;;;;;;7.60;3.20;;;;;;;8.55;48.45;101323.41;10377746;28;20599;-69
2024/01/23 12:13:24;;;;;;;13.03;3.87;;;;;;;10.39;47.08;101136.44;10379887;28;20686;-69
2024/01/23 12:18:26;;;;;;;11.83;3.53;;;;;;;10.08;48.57;101185.72;10341388;28;20289;-69
2024/01/23 12:23:28;;;;;;;10.97;4.20;;;;;;;9.72;49.55;101152.59;10313447;28;20238;-68
2024/01/23 12:28:32;;;;;;;10.80;3.60;;;;;;;10.03;48.42;101187.16;10307328;28;20230;-68
2024/01/23 12:33:38;;;;;;;7.70;3.50;;;;;;;10.57;47.76;101115.91;10326369;28;20237;-68
2024/01/23 12:38:40;;;;;;;18.13;5.93;;;;;;;9.32;48.58;101279.25;10350568;28;20237;-68
2024/01/23 12:43:42;;;;;;;11.40;3.77;;;;;;;10.80;46.42;101102.06;10351139;28;20295;-67
2024/01/23 12:48:43;;;;;;;6.13;3.43;;;;;;;9.83;46.25;101272.78;10347918;28;20325;-68
2024/01/23 12:53:46;;;;;;;8.20;3.50;;;;;;;9.88;46.57;101195.66;10352023;28;20668;-68
2024/01/23 12:58:47;;;;;;;7.47;3.60;;;;;;;11.12;44.76;101076.56;10346294;28;20303;-68
2024/01/23 13:03:50;;;;;;;11.77;4.03;;;;;;;9.00;47.56;101209.06;10356824;28;20237;-68
2024/01/23 13:08:52;;;;;;;7.20;3.83;;;;;;;10.58;45.54;101066.72;10353132;28;20235;-68
2024/01/23 13:13:55;;;;;;;10.47;4.27;;;;;;;9.88;46.43;101144.84;10352108;28;20264;-68
2024/01/23 13:18:57;;;;;;;11.13;3.87;;;;;;;9.54;47.29;101107.94;10345969;28;20615;-68
2024/01/23 13:24:01;;;;;;;7.73;3.87;;;;;;;8.90;47.05;101285.66;10349824;28;20786;-68
2024/01/23 13:29:03;;;;;;;10.80;3.87;;;;;;;11.23;44.60;101036.13;10347062;28;20233;-69
2024/01/23 13:34:09;;;;;;;9.93;3.77;;;;;;;10.25;45.54;101162.72;10352165;28;20249;-68
2024/01/23 13:39:13;;;;;;;13.07;4.77;;;;;;;10.11;45.74;101181.94;10345801;28;20593;-70
2024/01/23 13:44:15;;;;;;;9.93;5.10;;;;;;;10.66;44.63;101195.31;10347961;28;20239;-69
2024/01/23 13:49:18;;;;;;;14.17;4.87;;;;;;;10.32;46.11;101078.16;10343564;28;20255;-68
2024/01/23 13:54:19;;;;;;;11.50;3.77;;;;;;;10.56;45.52;101054.47;10349843;28;20755;-68
2024/01/23 13:59:21;;;;;;;7.83;3.20;;;;;;;8.56;47.22;101325.13;10344745;28;20328;-68
2024/01/23 14:04:23;;;;;;;11.57;4.30;;;;;;;11.04;44.39;101115.69;10348461;28;20239;-68
2024/01/23 14:09:30;;;;;;;7.60;3.57;;;;;;;10.42;45.38;101145.00;10342616;28;20273;-68
2024/01/23 14:14:32;;;;;;;9.70;4.20;;;;;;;11.35;44.40;101052.75;10347728;28;20233;-69
2024/01/23 14:19:33;;;;;;;9.03;3.60;;;;;;;10.52;45.14;101123.53;10362112;28;20235;-68
2024/01/23 14:24:35;;;;;;;7.30;3.93;;;;;;;9.99;45.44;101209.84;10346531;28;20320;-68
2024/01/23 14:29:37;;;;;;;10.50;3.90;;;;;;;10.50;44.86;101101.44;10344953;28;20463;-68
2024/01/23 14:34:39;;;;;;;7.77;3.20;;;;;;;10.14;45.09;101133.47;10349167;28;20335;-68
2024/01/23 14:39:41;;;;;;;10.60;3.97;;;;;;;10.53;44.87;101098.47;10345093;28;20268;-68
2024/01/23 14:44:43;;;;;;;8.53;4.23;;;;;;;10.53;43.99;101165.38;10345990;28;20228;-68
2024/01/23 14:49:44;;;;;;;7.27;3.47;;;;;;;9.69;44.97;101215.22;10339607;28;20244;-68
2024/01/23 14:54:46;;;;;;;9.97;4.00;;;;;;;10.50;44.51;101125.53;10345782;28;20237;-69
2024/01/23 14:59:49;;;;;;;10.33;4.27;;;;;;;10.08;44.55;101238.38;10344419;28;20232;-67
2024/01/23 15:04:51;;;;;;;8.67;3.27;;;;;;;10.64;43.89;101226.72;10341897;28;20243;-68
2024/01/23 15:09:53;;;;;;;5.93;3.27;;;;;;;11.18;42.91;101188.47;10338486;28;20236;-69
2024/01/23 15:14:55;;;;;;;9.23;3.60;;;;;;;11.53;42.89;101143.84;10338320;28;20647;-73
2024/01/23 15:19:57;;;;;;;9.20;3.87;;;;;;;10.80;43.62;101169.00;10342231;28;20648;-71
2024/01/23 15:24:58;;;;;;;9.87;3.93;;;;;;;9.47;44.55;101368.69;10343238;28;20268;-70
2024/01/23 15:30:00;;;;;;;9.70;3.87;;;;;;;9.87;44.17;101300.94;10359531;28;20263;-74
2024/01/23 15:35:05;;;;;;;5.93;3.00;;;;;;;10.24;44.43;101217.22;10342557;28;20237;-68
2024/01/23 15:40:10;;;;;;;5.53;3.43;;;;;;;10.19;44.28;101232.88;10352237;28;20654;-73
2024/01/23 15:45:13;;;;;;;6.63;3.03;;;;;;;10.17;43.85;101234.81;10340302;28;20238;-73
2024/01/23 15:50:15;;;;;;;7.00;2.80;;;;;;;9.21;45.64;101216.09;10346075;28;20372;-73
2024/01/23 15:55:19;;;;;;;6.93;3.00;;;;;;;10.00;44.65;101176.75;10352550;28;20328;-71
2024/01/23 16:00:21;;;;;;;11.00;3.33;;;;;;;11.40;43.41;101051.28;10350460;28;20241;-72
2024/01/23 16:05:23;;;;;;;6.13;3.30;;;;;;;11.34;43.21;101110.88;10351563;28;20238;-70
2024/01/23 16:10:25;;;;;;;8.50;3.43;;;;;;;9.32;45.25;101258.72;10349903;28;20237;-72
2024/01/23 16:15:28;;;;;;;5.80;3.07;;;;;;;9.51;46.09;101049.44;10350253;28;20670;-69
2024/01/23 16:20:29;;;;;;;6.20;3.30;;;;;;;9.85;45.25;101139.78;10354850;28;20240;-68
2024/01/23 16:25:31;;;;;;;8.67;3.40;;;;;;;9.94;46.10;101044.50;10360540;28;20878;-71
2024/01/23 16:30:33;;;;;;;6.83;3.57;;;;;;;9.85;45.45;101203.13;10351971;28;20311;-68
2024/01/23 16:35:35;;;;;;;5.27;3.53;;;;;;;8.62;48.76;101044.38;10348954;28;20690;-68
2024/01/23 16:40:36;;;;;;;8.40;3.87;;;;;;;8.27;49.19;101173.78;10351402;28;20654;-67
2024/01/23 16:45:38;;;;;;;8.27;3.93;;;;;;;7.95;50.59;101109.94;10348551;28;20276;-68
2024/01/23 16:50:40;;;;;;;7.67;3.43;;;;;;;8.11;50.53;101049.81;10353595;28;20244;-68
2024/01/23 16:55:44;;;;;;;6.97;3.70;;;;;;;9.36;48.63;100984.13;10349349;28;20260;-68
2024/01/23 17:00:46;;;;;;;7.07;3.40;;;;;;;9.22;48.64;101033.50;10347199;28;20624;-68
2024/01/23 17:05:48;;;;;;;11.93;3.97;;;;;;;9.44;48.55;101068.88;10349877;28;20239;-68
2024/01/23 17:10:50;;;;;;;13.53;3.90;;;;;;;9.19;50.24;100922.47;10349300;28;20237;-67
2024/01/23 17:15:52;;;;;;;13.37;4.00;;;;;;;9.12;49.91;100936.56;10348331;28;20773;-67
2024/01/23 17:20:53;;;;;;;7.43;4.50;;;;;;;9.11;49.18;101071.06;10352514;28;20279;-67
2024/01/23 17:25:55;;;;;;;7.33;4.03;;;;;;;9.32;49.30;100993.41;10349230;28;20312;-67
2024/01/23 17:31:00;;;;;;;10.73;4.00;;;;;;;9.48;48.78;101067.59;10348147;28;20326;-67
2024/01/23 17:36:02;;;;;;;8.60;4.20;;;;;;;8.86;50.41;101009.25;10348666;28;20334;-67
2024/01/23 17:41:04;;;;;;;11.07;5.43;;;;;;;9.26;50.42;100980.66;10348394;28;20240;-68
2024/01/23 17:46:05;;;;;;;11.00;5.47;;;;;;;9.26;50.39;100962.78;10345842;28;20267;-68
2024/01/23 17:51:08;;;;;;;9.27;4.63;;;;;;;7.30;53.32;101112.81;10348175;28;20229;-68
2024/01/23 17:56:10;;;;;;;7.50;3.80;;;;;;;8.79;51.69;100896.03;10347018;28;22001;-71
2024/01/23 18:01:12;;;;;;;11.33;4.07;;;;;;;7.55;53.64;100979.22;10348161;28;20254;-73
2024/01/23 18:06:20;;;;;;;12.13;4.13;;;;;;;8.15;53.09;100873.56;10344560;28;20247;-70
2024/01/23 18:11:22;;;;;;;10.30;3.70;;;;;;;7.16;53.83;101039.47;9452507;28;10000678;-73
2024/01/23 18:16:24;;;;;;;9.20;4.30;;;;;;;10.13;49.21;100845.63;10349771;28;20232;-71
2024/01/23 18:21:25;;;;;;;6.83;4.13;;;;;;;8.98;50.52;100921.88;10349162;28;20246;-70
2024/01/23 18:26:27;;;;;;;10.07;4.33;;;;;;;9.25;50.09;100923.72;10346969;28;20323;-71
2024/01/23 18:31:29;;;;;;;8.40;3.87;;;;;;;7.33;53.19;101014.88;10348487;28;20300;-75
2024/01/23 18:36:33;;;;;;;9.97;3.53;;;;;;;7.66;52.22;100996.06;10344329;28;20225;-71
2024/01/23 18:41:34;;;;;;;12.90;4.43;;;;;;;7.81;53.20;100884.63;10344577;28;20241;-73
2024/01/23 18:46:36;;;;;;;12.83;4.17;;;;;;;8.51;51.79;100834.63;10345909;28;20252;-70
2024/01/23 18:51:38;;;;;;;12.27;3.93;;;;;;;8.22;51.29;100949.38;10345065;28;20237;-69
2024/01/23 18:56:39;;;;;;;12.10;4.30;;;;;;;9.62;50.13;100799.03;10340135;28;20238;-69
2024/01/23 19:01:41;;;;;;;10.13;4.27;;;;;;;10.04;48.97;100903.53;10343208;28;20254;-69
2024/01/23 19:06:43;;;;;;;12.90;4.57;;;;;;;9.27;50.18;100991.19;10337843;28;20256;-68
2024/01/23 19:11:46;;;;;;;14.47;5.00;;;;;;;9.42;51.07;100875.84;10346043;28;20369;-68
2024/01/23 19:16:51;;;;;;;10.33;4.17;;;;;;;8.61;52.65;100792.72;10340221;28;20722;-69
2024/01/23 19:21:53;;;;;;;8.70;4.60;;;;;;;9.83;50.28;100831.66;10342655;28;20239;-69
2024/01/23 19:26:55;;;;;;;14.67;4.60;;;;;;;9.40;50.51;100895.50;10348523;28;20693;-68
2024/01/23 19:31:59;;;;;;;16.90;5.00;;;;;;;8.75;52.25;100838.59;10351200;28;20243;-67
2024/01/23 19:37:01;;;;;;;10.00;4.10;;;;;;;8.92;51.83;100871.72;10349916;28;20274;-68
2024/01/23 19:42:05;;;;;;;11.97;4.30;;;;;;;9.48;50.71;100873.38;10351624;28;20682;-68
2024/01/23 19:47:10;;;;;;;12.93;4.17;;;;;;;9.56;51.40;100691.75;10350742;28;20280;-69
2024/01/23 19:52:13;;;;;;;13.83;3.43;;;;;;;8.57;52.99;100708.66;10351240;28;20298;-68
2024/01/23 19:57:15;;;;;;;11.10;3.60;;;;;;;8.25;53.41;100768.59;10346526;28;20209;-68
2024/01/23 20:02:17;;;;;;;11.37;3.70;;;;;;;9.39;51.75;100632.03;10349540;28;20248;-68
2024/01/23 20:07:18;;;;;;;8.43;3.50;;;;;;;9.01;51.30;100726.66;10343195;28;20268;-74
2024/01/23 20:12:23;;;;;;;12.13;4.40;;;;;;;8.41;52.40;100735.94;10348344;28;20232;-72
2024/01/23 20:17:25;;;;;;;9.40;4.23;;;;;;;10.06;49.28;100698.31;10349596;28;20253;-73
2024/01/23 20:22:27;;;;;;;6.53;3.50;;;;;;;8.70;50.59;100873.72;10350068;28;20276;-71
2024/01/23 20:27:29;;;;;;;10.13;3.87;;;;;;;9.84;49.67;100707.69;10346457;28;20249;-71
2024/01/23 20:32:31;;;;;;;11.77;4.20;;;;;;;9.75;49.48;100708.59;10348802;28;20287;-70
2024/01/23 20:37:32;;;;;;;6.47;3.77;;;;;;;9.87;49.64;100714.56;10345193;28;20232;-68
2024/01/23 20:42:34;;;;;;;9.57;3.63;;;;;;;9.67;49.26;100735.25;10344881;28;20253;-69
2024/01/23 20:47:36;;;;;;;12.30;3.60;;;;;;;9.36;49.95;100741.03;10346888;28;20261;-71
2024/01/23 20:52:40;;;;;;;7.07;2.83;;;;;;;8.52;50.85;100832.78;10340643;28;20245;-73
2024/01/23 20:57:41;;;;;;;10.70;3.30;;;;;;;9.47;49.86;100671.34;10345773;28;20700;-69
2024/01/23 21:02:43;;;;;;;9.13;4.13;;;;;;;9.99;48.34;100784.66;10345490;28;20261;-71
2024/01/23 21:07:45;;;;;;;10.43;3.77;;;;;;;9.76;49.17;100688.91;10348424;28;20248;-69
2024/01/23 21:12:48;;;;;;;9.50;3.53;;;;;;;9.43;49.75;100706.53;10349513;28;20260;-70
2024/01/23 21:17:49;;;;;;;12.67;3.33;;;;;;;8.20;50.71;100876.63;10344426;28;20234;-68
2024/01/23 21:22:51;;;;;;;9.53;3.87;;;;;;;9.73;48.57;100833.53;10347987;28;20242;-69
2024/01/23 21:27:53;;;;;;;9.60;4.17;;;;;;;10.05;48.57;100742.09;10347969;28;20617;-67
2024/01/23 21:32:55;;;;;;;9.33;3.87;;;;;;;9.29;49.75;100794.22;10347185;28;21017;-67
2024/01/23 21:37:58;;;;;;;11.93;4.23;;;;;;;11.42;47.02;100641.06;10349638;28;20226;-67
2024/01/23 21:43:00;;;;;;;10.10;3.57;;;;;;;10.30;47.73;100726.19;10351582;28;20240;-67
2024/01/23 21:48:02;;;;;;;8.00;3.53;;;;;;;10.15;48.50;100693.84;10344866;28;20303;-68
2024/01/23 21:53:07;;;;;;;6.00;3.70;;;;;;;10.61;46.43;100805.94;10346290;28;20299;-66
2024/01/23 21:58:09;;;;;;;12.00;3.53;;;;;;;10.36;47.21;100796.94;10346050;28;20355;-67
2024/01/23 22:03:10;;;;;;;8.70;3.17;;;;;;;10.42;46.58;100861.34;10346149;28;20237;-67
2024/01/23 22:08:12;;;;;;;8.33;3.70;;;;;;;10.70;46.63;100760.31;10343534;28;20640;-67
2024/01/23 22:13:14;;;;;;;6.03;3.43;;;;;;;11.15;45.40;100813.72;10344256;28;20755;-67
2024/01/23 22:18:16;;;;;;;12.63;3.73;;;;;;;11.21;45.46;100771.03;10344841;28;20316;-67
2024/01/23 22:23:17;;;;;;;9.47;3.00;;;;;;;10.96;45.44;100777.34;10342093;28;20665;-67
2024/01/23 22:28:19;;;;;;;6.90;2.90;;;;;;;10.43;45.76;100863.06;10344708;28;20307;-67
2024/01/23 22:33:21;;;;;;;4.10;2.90;;;;;;;10.41;45.67;100890.94;10345143;28;20534;-69
2024/01/23 22:38:23;;;;;;;9.30;3.30;;;;;;;10.40;46.26;100822.41;10344755;28;20262;-69
2024/01/23 22:43:25;;;;;;;7.53;3.03;;;;;;;11.34;45.30;100724.16;10344933;28;20324;-68
2024/01/23 22:48:26;;;;;;;6.53;2.80;;;;;;;12.13;43.79;100687.72;10344332;28;20237;-68
2024/01/23 22:53:28;;;;;;;4.03;2.50;;;;;;;9.90;46.31;100883.50;10343870;28;20243;-68
2024/01/23 22:58:30;;;;;;;4.67;2.90;;;;;;;10.55;45.63;100828.00;10340808;28;21665;-68
2024/01/23 23:03:31;;;;;;;4.33;3.07;;;;;;;11.54;44.67;100700.53;10343136;28;20591;-68
2024/01/23 23:08:33;;;;;;;9.93;3.13;;;;;;;10.94;44.64;100812.31;10345558;28;20629;-69
2024/01/23 23:13:35;;;;;;;7.00;3.20;;;;;;;10.95;44.74;100810.47;10345829;28;20229;-69
2024/01/23 23:18:38;;;;;;;5.17;2.77;;;;;;;11.73;44.30;100688.66;10344735;28;20275;-69